sensor_id;sensor_type;location;lat;lon;timestamp;P1;durP1;ratioP1;P2;durP2;ratioP2
25868;SDS011;13688;53.154;18.136;2023-03-30T00:04:42;24.50;;;13.00;;
25868;SDS011;13688;53.154;18.136;2023-03-30T00:10:09;22.00;;;12.20;;
25868;SDS011;13688;53.154;18.136;2023-03-30T00:15:33;21.67;;;11.47;;
25868;SDS011;13688;53.154;18.136;2023-03-30T00:20:56;26.13;;;13.00;;
25868;SDS011;13688;53.154;18.136;2023-03-30T00:26:21;23.15;;;12.23;;
25868;SDS011;13688;53.154;18.136;2023-03-30T00:31:44;26.12;;;13.40;;
25868;SDS011;13688;53.154;18.136;2023-03-30T00:37:07;25.77;;;12.50;;
25868;SDS011;13688;53.154;18.136;2023-03-30T00:42:30;25.23;;;12.57;;
25868;SDS011;13688;53.154;18.136;2023-03-30T00:47:55;26.60;;;12.70;;
25868;SDS011;13688;53.154;18.136;2023-03-30T00:53:25;23.27;;;13.25;;
25868;SDS011;13688;53.154;18.136;2023-03-30T00:58:55;26.70;;;12.78;;
25868;SDS011;13688;53.154;18.136;2023-03-30T01:04:18;25.88;;;13.30;;
25868;SDS011;13688;53.154;18.136;2023-03-30T01:09:41;24.13;;;12.53;;
25868;SDS011;13688;53.154;18.136;2023-03-30T01:15:05;21.48;;;12.58;;
25868;SDS011;13688;53.154;18.136;2023-03-30T01:26:21;22.52;;;12.53;;
25868;SDS011;13688;53.154;18.136;2023-03-30T01:38:27;25.30;;;13.50;;
25868;SDS011;13688;53.154;18.136;2023-03-30T01:44:28;20.77;;;12.20;;
25868;SDS011;13688;53.154;18.136;2023-03-30T01:50:10;25.30;;;13.10;;
25868;SDS011;13688;53.154;18.136;2023-03-30T01:55:45;22.10;;;12.33;;
25868;SDS011;13688;53.154;18.136;2023-03-30T02:01:20;22.27;;;12.18;;
25868;SDS011;13688;53.154;18.136;2023-03-30T02:06:47;23.85;;;12.90;;
25868;SDS011;13688;53.154;18.136;2023-03-30T02:12:13;28.37;;;13.77;;
25868;SDS011;13688;53.154;18.136;2023-03-30T02:17:38;23.30;;;14.18;;
25868;SDS011;13688;53.154;18.136;2023-03-30T02:23:01;22.48;;;12.95;;
25868;SDS011;13688;53.154;18.136;2023-03-30T02:28:25;28.98;;;14.53;;
25868;SDS011;13688;53.154;18.136;2023-03-30T02:33:53;28.37;;;14.07;;
25868;SDS011;13688;53.154;18.136;2023-03-30T02:39:35;25.15;;;14.35;;
25868;SDS011;13688;53.154;18.136;2023-03-30T02:45:36;28.17;;;14.10;;
25868;SDS011;13688;53.154;18.136;2023-03-30T02:51:37;23.90;;;13.67;;
25868;SDS011;13688;53.154;18.136;2023-03-30T02:57:22;25.68;;;13.95;;
25868;SDS011;13688;53.154;18.136;2023-03-30T03:03:13;26.70;;;13.95;;
25868;SDS011;13688;53.154;18.136;2023-03-30T03:08:45;25.55;;;13.28;;
25868;SDS011;13688;53.154;18.136;2023-03-30T03:14:09;26.50;;;12.85;;
25868;SDS011;13688;53.154;18.136;2023-03-30T03:19:42;26.87;;;13.70;;
25868;SDS011;13688;53.154;18.136;2023-03-30T03:25:06;22.20;;;12.17;;
25868;SDS011;13688;53.154;18.136;2023-03-30T03:30:29;26.73;;;14.03;;
25868;SDS011;13688;53.154;18.136;2023-03-30T03:35:53;24.50;;;14.27;;
25868;SDS011;13688;53.154;18.136;2023-03-30T03:41:15;32.77;;;16.30;;
25868;SDS011;13688;53.154;18.136;2023-03-30T03:46:38;29.03;;;15.20;;
25868;SDS011;13688;53.154;18.136;2023-03-30T03:52:01;30.73;;;16.67;;
25868;SDS011;13688;53.154;18.136;2023-03-30T03:57:23;29.90;;;15.10;;
25868;SDS011;13688;53.154;18.136;2023-03-30T04:02:47;30.63;;;15.60;;
25868;SDS011;13688;53.154;18.136;2023-03-30T04:08:12;34.90;;;17.60;;
25868;SDS011;13688;53.154;18.136;2023-03-30T04:13:34;30.45;;;16.27;;
25868;SDS011;13688;53.154;18.136;2023-03-30T04:18:57;25.05;;;15.18;;
25868;SDS011;13688;53.154;18.136;2023-03-30T04:24:20;26.20;;;15.80;;
25868;SDS011;13688;53.154;18.136;2023-03-30T04:29:42;28.52;;;16.30;;
25868;SDS011;13688;53.154;18.136;2023-03-30T04:35:06;27.90;;;15.30;;
25868;SDS011;13688;53.154;18.136;2023-03-30T04:40:30;31.00;;;16.07;;
25868;SDS011;13688;53.154;18.136;2023-03-30T04:45:53;53.85;;;27.00;;
25868;SDS011;13688;53.154;18.136;2023-03-30T04:51:16;89.47;;;44.83;;
25868;SDS011;13688;53.154;18.136;2023-03-30T04:56:40;79.43;;;43.23;;
25868;SDS011;13688;53.154;18.136;2023-03-30T05:02:03;59.00;;;31.95;;
25868;SDS011;13688;53.154;18.136;2023-03-30T05:07:26;53.13;;;29.77;;
25868;SDS011;13688;53.154;18.136;2023-03-30T05:12:49;84.52;;;46.80;;
25868;SDS011;13688;53.154;18.136;2023-03-30T05:18:13;36.60;;;21.10;;
25868;SDS011;13688;53.154;18.136;2023-03-30T05:23:36;32.25;;;16.48;;
25868;SDS011;13688;53.154;18.136;2023-03-30T05:28:58;29.13;;;16.13;;
25868;SDS011;13688;53.154;18.136;2023-03-30T05:34:22;32.90;;;16.60;;
25868;SDS011;13688;53.154;18.136;2023-03-30T05:39:44;28.12;;;15.83;;
25868;SDS011;13688;53.154;18.136;2023-03-30T05:45:09;27.33;;;15.50;;
25868;SDS011;13688;53.154;18.136;2023-03-30T05:50:31;35.35;;;16.60;;
25868;SDS011;13688;53.154;18.136;2023-03-30T05:55:56;32.93;;;17.07;;
25868;SDS011;13688;53.154;18.136;2023-03-30T06:01:19;32.23;;;17.67;;
25868;SDS011;13688;53.154;18.136;2023-03-30T06:06:44;54.43;;;29.47;;
25868;SDS011;13688;53.154;18.136;2023-03-30T06:12:07;29.37;;;17.10;;
25868;SDS011;13688;53.154;18.136;2023-03-30T06:17:48;27.60;;;16.33;;
25868;SDS011;13688;53.154;18.136;2023-03-30T06:23:25;30.57;;;17.23;;
25868;SDS011;13688;53.154;18.136;2023-03-30T06:28:48;26.77;;;15.10;;
25868;SDS011;13688;53.154;18.136;2023-03-30T06:34:11;36.77;;;22.53;;
25868;SDS011;13688;53.154;18.136;2023-03-30T06:39:34;28.92;;;15.93;;
25868;SDS011;13688;53.154;18.136;2023-03-30T06:45:00;24.87;;;15.17;;
25868;SDS011;13688;53.154;18.136;2023-03-30T06:50:23;29.60;;;17.07;;
25868;SDS011;13688;53.154;18.136;2023-03-30T06:55:50;26.33;;;16.93;;
25868;SDS011;13688;53.154;18.136;2023-03-30T07:01:14;31.80;;;16.97;;
25868;SDS011;13688;53.154;18.136;2023-03-30T07:06:37;32.60;;;17.95;;
25868;SDS011;13688;53.154;18.136;2023-03-30T07:12:00;31.97;;;18.60;;
25868;SDS011;13688;53.154;18.136;2023-03-30T07:17:22;28.38;;;17.48;;
25868;SDS011;13688;53.154;18.136;2023-03-30T07:22:46;26.93;;;16.37;;
25868;SDS011;13688;53.154;18.136;2023-03-30T07:28:08;23.85;;;15.18;;
25868;SDS011;13688;53.154;18.136;2023-03-30T07:33:31;27.55;;;16.57;;
25868;SDS011;13688;53.154;18.136;2023-03-30T07:38:53;24.65;;;15.58;;
25868;SDS011;13688;53.154;18.136;2023-03-30T07:44:16;27.98;;;16.25;;
25868;SDS011;13688;53.154;18.136;2023-03-30T07:49:38;31.65;;;18.27;;
25868;SDS011;13688;53.154;18.136;2023-03-30T07:55:01;33.13;;;17.98;;
25868;SDS011;13688;53.154;18.136;2023-03-30T08:00:23;28.80;;;17.48;;
25868;SDS011;13688;53.154;18.136;2023-03-30T08:05:51;27.13;;;17.37;;
25868;SDS011;13688;53.154;18.136;2023-03-30T08:11:15;27.30;;;16.15;;
25868;SDS011;13688;53.154;18.136;2023-03-30T08:16:38;25.92;;;16.67;;
25868;SDS011;13688;53.154;18.136;2023-03-30T08:22:01;24.35;;;15.30;;
25868;SDS011;13688;53.154;18.136;2023-03-30T08:27:23;22.40;;;15.50;;
25868;SDS011;13688;53.154;18.136;2023-03-30T08:32:46;25.93;;;15.97;;
25868;SDS011;13688;53.154;18.136;2023-03-30T08:38:08;25.08;;;16.30;;
25868;SDS011;13688;53.154;18.136;2023-03-30T08:49:49;25.57;;;16.90;;
25868;SDS011;13688;53.154;18.136;2023-03-30T08:55:20;26.80;;;16.80;;
25868;SDS011;13688;53.154;18.136;2023-03-30T09:06:42;27.27;;;15.70;;
25868;SDS011;13688;53.154;18.136;2023-03-30T09:17:55;23.40;;;14.23;;
25868;SDS011;13688;53.154;18.136;2023-03-30T09:23:25;22.20;;;14.00;;
25868;SDS011;13688;53.154;18.136;2023-03-30T09:29:05;29.87;;;15.53;;
25868;SDS011;13688;53.154;18.136;2023-03-30T09:34:37;28.40;;;16.73;;
25868;SDS011;13688;53.154;18.136;2023-03-30T09:40:27;27.40;;;17.70;;
25868;SDS011;13688;53.154;18.136;2023-03-30T09:46:13;28.43;;;17.17;;
25868;SDS011;13688;53.154;18.136;2023-03-30T09:51:36;24.15;;;16.67;;
25868;SDS011;13688;53.154;18.136;2023-03-30T09:57:22;24.50;;;15.67;;
25868;SDS011;13688;53.154;18.136;2023-03-30T10:02:55;25.80;;;15.50;;
25868;SDS011;13688;53.154;18.136;2023-03-30T10:08:20;23.53;;;15.03;;
25868;SDS011;13688;53.154;18.136;2023-03-30T10:13:41;26.73;;;14.27;;
25868;SDS011;13688;53.154;18.136;2023-03-30T10:19:14;21.90;;;15.53;;
25868;SDS011;13688;53.154;18.136;2023-03-30T10:24:33;24.52;;;15.83;;
25868;SDS011;13688;53.154;18.136;2023-03-30T10:30:07;24.93;;;16.30;;
25868;SDS011;13688;53.154;18.136;2023-03-30T10:35:35;23.02;;;15.30;;
25868;SDS011;13688;53.154;18.136;2023-03-30T10:41:00;22.77;;;14.17;;
25868;SDS011;13688;53.154;18.136;2023-03-30T10:46:32;19.20;;;11.95;;
25868;SDS011;13688;53.154;18.136;2023-03-30T10:52:00;19.82;;;12.00;;
25868;SDS011;13688;53.154;18.136;2023-03-30T10:57:51;20.00;;;12.70;;
25868;SDS011;13688;53.154;18.136;2023-03-30T11:03:16;25.88;;;16.15;;
25868;SDS011;13688;53.154;18.136;2023-03-30T11:08:45;26.40;;;14.73;;
25868;SDS011;13688;53.154;18.136;2023-03-30T11:14:22;21.97;;;14.47;;
25868;SDS011;13688;53.154;18.136;2023-03-30T11:19:55;21.35;;;12.88;;
25868;SDS011;13688;53.154;18.136;2023-03-30T11:25:51;19.37;;;12.60;;
25868;SDS011;13688;53.154;18.136;2023-03-30T11:42:41;20.23;;;12.55;;
25868;SDS011;13688;53.154;18.136;2023-03-30T11:54:32;19.37;;;12.73;;
25868;SDS011;13688;53.154;18.136;2023-03-30T12:11:53;16.37;;;11.90;;
25868;SDS011;13688;53.154;18.136;2023-03-30T12:29:18;19.17;;;12.23;;
25868;SDS011;13688;53.154;18.136;2023-03-30T12:34:59;22.83;;;12.13;;
25868;SDS011;13688;53.154;18.136;2023-03-30T12:40:42;17.90;;;12.90;;
25868;SDS011;13688;53.154;18.136;2023-03-30T12:52:05;22.90;;;13.03;;
25868;SDS011;13688;53.154;18.136;2023-03-30T13:03:58;24.73;;;13.60;;
25868;SDS011;13688;53.154;18.136;2023-03-30T13:21:25;22.27;;;13.13;;
25868;SDS011;13688;53.154;18.136;2023-03-30T13:26:39;22.13;;;14.00;;
25868;SDS011;13688;53.154;18.136;2023-03-30T14:00:58;18.33;;;11.83;;
25868;SDS011;13688;53.154;18.136;2023-03-30T14:06:26;19.37;;;13.23;;
25868;SDS011;13688;53.154;18.136;2023-03-30T14:11:57;22.77;;;13.77;;
25868;SDS011;13688;53.154;18.136;2023-03-30T14:17:20;19.50;;;13.17;;
25868;SDS011;13688;53.154;18.136;2023-03-30T14:22:44;22.48;;;13.15;;
25868;SDS011;13688;53.154;18.136;2023-03-30T14:28:18;19.63;;;13.27;;
25868;SDS011;13688;53.154;18.136;2023-03-30T14:33:45;16.32;;;11.43;;
25868;SDS011;13688;53.154;18.136;2023-03-30T14:39:08;20.00;;;13.30;;
25868;SDS011;13688;53.154;18.136;2023-03-30T14:44:36;24.25;;;15.15;;
25868;SDS011;13688;53.154;18.136;2023-03-30T14:50:01;24.83;;;15.00;;
25868;SDS011;13688;53.154;18.136;2023-03-30T14:55:25;24.67;;;14.45;;
25868;SDS011;13688;53.154;18.136;2023-03-30T15:00:49;21.97;;;14.18;;
25868;SDS011;13688;53.154;18.136;2023-03-30T15:06:19;26.77;;;14.13;;
25868;SDS011;13688;53.154;18.136;2023-03-30T15:11:40;19.77;;;13.17;;
25868;SDS011;13688;53.154;18.136;2023-03-30T15:17:10;25.40;;;14.30;;
25868;SDS011;13688;53.154;18.136;2023-03-30T15:22:35;24.75;;;14.53;;
25868;SDS011;13688;53.154;18.136;2023-03-30T15:28:12;21.35;;;15.30;;
25868;SDS011;13688;53.154;18.136;2023-03-30T15:33:57;22.70;;;15.37;;
25868;SDS011;13688;53.154;18.136;2023-03-30T15:39:27;21.43;;;14.40;;
25868;SDS011;13688;53.154;18.136;2023-03-30T15:45:07;25.63;;;15.83;;
25868;SDS011;13688;53.154;18.136;2023-03-30T15:50:26;23.00;;;14.43;;
25868;SDS011;13688;53.154;18.136;2023-03-30T15:55:50;20.30;;;13.03;;
25868;SDS011;13688;53.154;18.136;2023-03-30T16:01:15;23.13;;;14.57;;
25868;SDS011;13688;53.154;18.136;2023-03-30T16:06:51;22.40;;;14.50;;
25868;SDS011;13688;53.154;18.136;2023-03-30T16:12:40;23.90;;;14.50;;
25868;SDS011;13688;53.154;18.136;2023-03-30T16:17:59;26.40;;;16.00;;
25868;SDS011;13688;53.154;18.136;2023-03-30T16:23:21;43.57;;;24.57;;
25868;SDS011;13688;53.154;18.136;2023-03-30T16:28:44;24.82;;;17.05;;
25868;SDS011;13688;53.154;18.136;2023-03-30T16:34:07;26.42;;;17.77;;
25868;SDS011;13688;53.154;18.136;2023-03-30T16:39:30;27.58;;;17.73;;
25868;SDS011;13688;53.154;18.136;2023-03-30T16:44:52;27.05;;;16.17;;
25868;SDS011;13688;53.154;18.136;2023-03-30T16:50:17;28.15;;;16.40;;
25868;SDS011;13688;53.154;18.136;2023-03-30T16:55:52;29.50;;;17.00;;
25868;SDS011;13688;53.154;18.136;2023-03-30T17:01:15;31.15;;;18.52;;
25868;SDS011;13688;53.154;18.136;2023-03-30T17:06:39;35.90;;;19.65;;
25868;SDS011;13688;53.154;18.136;2023-03-30T17:12:02;32.28;;;18.45;;
25868;SDS011;13688;53.154;18.136;2023-03-30T17:17:24;31.30;;;17.70;;
25868;SDS011;13688;53.154;18.136;2023-03-30T17:22:47;34.18;;;18.12;;
25868;SDS011;13688;53.154;18.136;2023-03-30T17:28:32;33.97;;;19.43;;
25868;SDS011;13688;53.154;18.136;2023-03-30T17:33:45;37.83;;;20.53;;
25868;SDS011;13688;53.154;18.136;2023-03-30T17:39:12;36.80;;;20.45;;
25868;SDS011;13688;53.154;18.136;2023-03-30T17:44:36;38.02;;;19.92;;
25868;SDS011;13688;53.154;18.136;2023-03-30T17:49:58;40.25;;;21.60;;
25868;SDS011;13688;53.154;18.136;2023-03-30T17:55:40;43.07;;;25.00;;
25868;SDS011;13688;53.154;18.136;2023-03-30T18:01:05;40.03;;;22.82;;
25868;SDS011;13688;53.154;18.136;2023-03-30T18:06:27;37.80;;;20.50;;
25868;SDS011;13688;53.154;18.136;2023-03-30T18:11:51;36.53;;;20.93;;
25868;SDS011;13688;53.154;18.136;2023-03-30T18:17:13;35.33;;;19.93;;
25868;SDS011;13688;53.154;18.136;2023-03-30T18:22:36;34.35;;;20.12;;
25868;SDS011;13688;53.154;18.136;2023-03-30T18:27:59;31.00;;;19.82;;
25868;SDS011;13688;53.154;18.136;2023-03-30T18:33:24;35.63;;;19.27;;
25868;SDS011;13688;53.154;18.136;2023-03-30T18:38:47;36.47;;;19.23;;
25868;SDS011;13688;53.154;18.136;2023-03-30T18:44:11;31.70;;;19.37;;
25868;SDS011;13688;53.154;18.136;2023-03-30T18:49:34;32.85;;;19.50;;
25868;SDS011;13688;53.154;18.136;2023-03-30T18:54:56;34.63;;;19.92;;
25868;SDS011;13688;53.154;18.136;2023-03-30T19:00:20;29.93;;;19.63;;
25868;SDS011;13688;53.154;18.136;2023-03-30T19:05:44;91.93;;;59.23;;
25868;SDS011;13688;53.154;18.136;2023-03-30T19:11:09;38.40;;;21.05;;
25868;SDS011;13688;53.154;18.136;2023-03-30T19:16:37;34.20;;;20.23;;
25868;SDS011;13688;53.154;18.136;2023-03-30T19:22:00;27.17;;;16.05;;
25868;SDS011;13688;53.154;18.136;2023-03-30T19:27:22;23.27;;;12.63;;
25868;SDS011;13688;53.154;18.136;2023-03-30T19:32:46;18.80;;;11.00;;
25868;SDS011;13688;53.154;18.136;2023-03-30T19:38:12;13.05;;;8.08;;
25868;SDS011;13688;53.154;18.136;2023-03-30T19:43:36;14.03;;;8.10;;
25868;SDS011;13688;53.154;18.136;2023-03-30T19:48:58;10.50;;;5.10;;
25868;SDS011;13688;53.154;18.136;2023-03-30T19:54:32;8.17;;;4.13;;
25868;SDS011;13688;53.154;18.136;2023-03-30T19:59:54;5.43;;;3.90;;
25868;SDS011;13688;53.154;18.136;2023-03-30T20:05:19;6.87;;;3.73;;
25868;SDS011;13688;53.154;18.136;2023-03-30T20:10:45;4.50;;;2.80;;
25868;SDS011;13688;53.154;18.136;2023-03-30T20:16:07;4.57;;;3.20;;
25868;SDS011;13688;53.154;18.136;2023-03-30T20:21:32;5.63;;;2.83;;
25868;SDS011;13688;53.154;18.136;2023-03-30T20:26:54;8.97;;;4.73;;
25868;SDS011;13688;53.154;18.136;2023-03-30T20:32:17;9.50;;;4.60;;
25868;SDS011;13688;53.154;18.136;2023-03-30T20:37:39;7.22;;;3.83;;
25868;SDS011;13688;53.154;18.136;2023-03-30T20:43:02;5.60;;;3.77;;
25868;SDS011;13688;53.154;18.136;2023-03-30T20:48:24;8.43;;;3.90;;
25868;SDS011;13688;53.154;18.136;2023-03-30T20:53:49;9.48;;;4.90;;
25868;SDS011;13688;53.154;18.136;2023-03-30T20:59:13;7.87;;;4.50;;
25868;SDS011;13688;53.154;18.136;2023-03-30T21:04:36;9.30;;;5.30;;
25868;SDS011;13688;53.154;18.136;2023-03-30T21:10:14;7.97;;;5.13;;
25868;SDS011;13688;53.154;18.136;2023-03-30T21:15:37;12.47;;;6.75;;
25868;SDS011;13688;53.154;18.136;2023-03-30T21:21:09;10.13;;;6.22;;
25868;SDS011;13688;53.154;18.136;2023-03-30T21:26:32;8.87;;;5.30;;
25868;SDS011;13688;53.154;18.136;2023-03-30T21:31:55;7.90;;;4.57;;
25868;SDS011;13688;53.154;18.136;2023-03-30T21:37:17;6.40;;;4.15;;
25868;SDS011;13688;53.154;18.136;2023-03-30T21:42:40;8.88;;;4.55;;
25868;SDS011;13688;53.154;18.136;2023-03-30T21:48:02;8.57;;;4.13;;
25868;SDS011;13688;53.154;18.136;2023-03-30T21:53:25;6.60;;;4.47;;
25868;SDS011;13688;53.154;18.136;2023-03-30T21:58:50;8.73;;;4.60;;
25868;SDS011;13688;53.154;18.136;2023-03-30T22:04:13;7.80;;;4.30;;
25868;SDS011;13688;53.154;18.136;2023-03-30T22:09:36;7.58;;;4.17;;
25868;SDS011;13688;53.154;18.136;2023-03-30T22:14:59;7.93;;;4.40;;
25868;SDS011;13688;53.154;18.136;2023-03-30T22:20:24;8.03;;;4.90;;
25868;SDS011;13688;53.154;18.136;2023-03-30T22:25:49;8.00;;;6.10;;
25868;SDS011;13688;53.154;18.136;2023-03-30T22:31:12;9.40;;;6.35;;
25868;SDS011;13688;53.154;18.136;2023-03-30T22:36:35;12.10;;;6.20;;
25868;SDS011;13688;53.154;18.136;2023-03-30T22:41:57;8.07;;;6.13;;
25868;SDS011;13688;53.154;18.136;2023-03-30T22:47:20;11.08;;;8.00;;
25868;SDS011;13688;53.154;18.136;2023-03-30T22:52:43;10.03;;;7.47;;
25868;SDS011;13688;53.154;18.136;2023-03-30T22:58:06;9.95;;;7.80;;
25868;SDS011;13688;53.154;18.136;2023-03-30T23:03:29;10.07;;;7.50;;
25868;SDS011;13688;53.154;18.136;2023-03-30T23:08:51;11.70;;;7.90;;
25868;SDS011;13688;53.154;18.136;2023-03-30T23:14:16;8.53;;;6.72;;
25868;SDS011;13688;53.154;18.136;2023-03-30T23:19:40;8.88;;;6.95;;
25868;SDS011;13688;53.154;18.136;2023-03-30T23:25:03;11.63;;;7.43;;
25868;SDS011;13688;53.154;18.136;2023-03-30T23:30:28;9.85;;;6.92;;
25868;SDS011;13688;53.154;18.136;2023-03-30T23:35:52;10.17;;;7.43;;
25868;SDS011;13688;53.154;18.136;2023-03-30T23:41:20;10.20;;;7.50;;
25868;SDS011;13688;53.154;18.136;2023-03-30T23:46:43;8.63;;;6.55;;
25868;SDS011;13688;53.154;18.136;2023-03-30T23:52:05;8.30;;;7.15;;
25868;SDS011;13688;53.154;18.136;2023-03-30T23:57:28;9.45;;;7.20;;
